sensor_id;sensor_type;location;lat;lon;timestamp;temperature;humidity
22471;DHT22;11402;51.374;6.594;2022-12-18T00:01:32;-3.00;99.90
22471;DHT22;11402;51.374;6.594;2022-12-18T00:03:59;-3.00;99.90
22471;DHT22;11402;51.374;6.594;2022-12-18T00:06:27;-3.10;99.90
22471;DHT22;11402;51.374;6.594;2022-12-18T00:08:53;-3.00;99.90
22471;DHT22;11402;51.374;6.594;2022-12-18T00:11:22;-3.00;99.90
22471;DHT22;11402;51.374;6.594;2022-12-18T00:13:49;-3.10;99.90
22471;DHT22;11402;51.374;6.594;2022-12-18T00:16:17;-3.20;99.90
22471;DHT22;11402;51.374;6.594;2022-12-18T00:18:45;-3.20;99.90
22471;DHT22;11402;51.374;6.594;2022-12-18T00:21:12;-3.20;99.90
22471;DHT22;11402;51.374;6.594;2022-12-18T00:23:40;-3.30;99.90
22471;DHT22;11402;51.374;6.594;2022-12-18T00:26:11;-3.30;99.90
22471;DHT22;11402;51.374;6.594;2022-12-18T00:28:40;-3.40;99.90
22471;DHT22;11402;51.374;6.594;2022-12-18T00:31:25;-3.30;99.90
22471;DHT22;11402;51.374;6.594;2022-12-18T00:33:50;-3.10;99.90
22471;DHT22;11402;51.374;6.594;2022-12-18T00:36:22;-3.00;99.90
22471;DHT22;11402;51.374;6.594;2022-12-18T00:38:48;-3.10;99.90
22471;DHT22;11402;51.374;6.594;2022-12-18T00:41:16;-3.10;99.90
22471;DHT22;11402;51.374;6.594;2022-12-18T00:44:02;-3.10;99.90
22471;DHT22;11402;51.374;6.594;2022-12-18T00:46:28;-3.10;99.90
22471;DHT22;11402;51.374;6.594;2022-12-18T00:48:54;-2.90;99.90
22471;DHT22;11402;51.374;6.594;2022-12-18T00:51:20;-2.90;99.90
22471;DHT22;11402;51.374;6.594;2022-12-18T00:53:45;-3.00;99.90
22471;DHT22;11402;51.374;6.594;2022-12-18T00:56:11;-3.00;99.90
22471;DHT22;11402;51.374;6.594;2022-12-18T00:58:36;-3.10;99.90
22471;DHT22;11402;51.374;6.594;2022-12-18T01:01:04;-3.10;99.90
22471;DHT22;11402;51.374;6.594;2022-12-18T01:03:30;-3.10;99.90
22471;DHT22;11402;51.374;6.594;2022-12-18T01:05:56;-3.10;99.90
22471;DHT22;11402;51.374;6.594;2022-12-18T01:08:21;-3.00;99.90
22471;DHT22;11402;51.374;6.594;2022-12-18T01:10:47;-3.00;99.90
22471;DHT22;11402;51.374;6.594;2022-12-18T01:13:12;-3.00;99.90
22471;DHT22;11402;51.374;6.594;2022-12-18T01:15:38;-2.90;99.90
22471;DHT22;11402;51.374;6.594;2022-12-18T01:18:06;-2.80;99.90
22471;DHT22;11402;51.374;6.594;2022-12-18T01:20:31;-2.70;99.90
22471;DHT22;11402;51.374;6.594;2022-12-18T01:22:57;-2.70;99.90
22471;DHT22;11402;51.374;6.594;2022-12-18T01:25:23;-2.70;99.90
22471;DHT22;11402;51.374;6.594;2022-12-18T01:27:48;-2.80;99.90
22471;DHT22;11402;51.374;6.594;2022-12-18T01:30:14;-2.90;99.90
22471;DHT22;11402;51.374;6.594;2022-12-18T01:32:39;-2.90;99.90
22471;DHT22;11402;51.374;6.594;2022-12-18T01:35:06;-2.90;99.90
22471;DHT22;11402;51.374;6.594;2022-12-18T01:37:32;-2.80;99.90
22471;DHT22;11402;51.374;6.594;2022-12-18T01:39:57;-2.80;99.90
22471;DHT22;11402;51.374;6.594;2022-12-18T01:42:23;-2.80;99.90
22471;DHT22;11402;51.374;6.594;2022-12-18T01:44:55;-2.90;99.90
22471;DHT22;11402;51.374;6.594;2022-12-18T01:50:04;-2.90;99.90
22471;DHT22;11402;51.374;6.594;2022-12-18T01:52:32;-2.90;99.90
22471;DHT22;11402;51.374;6.594;2022-12-18T01:54:59;-2.90;99.90
22471;DHT22;11402;51.374;6.594;2022-12-18T01:57:26;-2.90;99.90
22471;DHT22;11402;51.374;6.594;2022-12-18T01:59:53;-2.80;99.90
22471;DHT22;11402;51.374;6.594;2022-12-18T02:02:21;-2.80;99.90
22471;DHT22;11402;51.374;6.594;2022-12-18T02:04:47;-2.90;99.90
22471;DHT22;11402;51.374;6.594;2022-12-18T02:07:20;-2.70;99.90
22471;DHT22;11402;51.374;6.594;2022-12-18T02:26:24;-2.70;99.90
22471;DHT22;11402;51.374;6.594;2022-12-18T02:28:58;-2.70;99.90
22471;DHT22;11402;51.374;6.594;2022-12-18T02:31:30;-2.60;99.90
22471;DHT22;11402;51.374;6.594;2022-12-18T02:34:00;-2.70;99.90
22471;DHT22;11402;51.374;6.594;2022-12-18T02:36:27;-2.80;99.90
22471;DHT22;11402;51.374;6.594;2022-12-18T02:38:55;-2.70;99.90
22471;DHT22;11402;51.374;6.594;2022-12-18T02:41:22;-2.90;99.90
22471;DHT22;11402;51.374;6.594;2022-12-18T02:43:49;-2.90;99.90
22471;DHT22;11402;51.374;6.594;2022-12-18T02:46:45;-2.70;99.90
22471;DHT22;11402;51.374;6.594;2022-12-18T02:49:32;-2.80;99.90
22471;DHT22;11402;51.374;6.594;2022-12-18T02:57:24;-2.80;99.90
22471;DHT22;11402;51.374;6.594;2022-12-18T03:00:02;-2.70;99.90
22471;DHT22;11402;51.374;6.594;2022-12-18T03:03:14;-2.70;99.90
22471;DHT22;11402;51.374;6.594;2022-12-18T03:05:50;-2.70;99.90
22471;DHT22;11402;51.374;6.594;2022-12-18T03:08:22;-2.60;99.90
22471;DHT22;11402;51.374;6.594;2022-12-18T03:11:02;-2.60;99.90
22471;DHT22;11402;51.374;6.594;2022-12-18T03:13:42;-2.60;99.90
22471;DHT22;11402;51.374;6.594;2022-12-18T03:16:12;-2.60;99.90
22471;DHT22;11402;51.374;6.594;2022-12-18T03:18:45;-2.70;99.90
22471;DHT22;11402;51.374;6.594;2022-12-18T03:21:13;-2.70;99.90
22471;DHT22;11402;51.374;6.594;2022-12-18T03:23:43;-2.70;99.90
22471;DHT22;11402;51.374;6.594;2022-12-18T03:26:12;-2.70;99.90
22471;DHT22;11402;51.374;6.594;2022-12-18T03:28:46;-2.70;99.90
22471;DHT22;11402;51.374;6.594;2022-12-18T03:31:14;-2.70;99.90
22471;DHT22;11402;51.374;6.594;2022-12-18T03:33:54;-2.70;99.90
22471;DHT22;11402;51.374;6.594;2022-12-18T03:36:21;-2.70;99.90
22471;DHT22;11402;51.374;6.594;2022-12-18T03:38:47;-2.60;99.90
22471;DHT22;11402;51.374;6.594;2022-12-18T03:41:19;-2.60;99.90
22471;DHT22;11402;51.374;6.594;2022-12-18T03:44:15;-2.60;99.90
22471;DHT22;11402;51.374;6.594;2022-12-18T03:52:30;-2.50;99.90
22471;DHT22;11402;51.374;6.594;2022-12-18T03:54:58;-2.50;99.90
22471;DHT22;11402;51.374;6.594;2022-12-18T03:57:27;-2.50;99.90
22471;DHT22;11402;51.374;6.594;2022-12-18T04:00:00;-2.60;99.90
22471;DHT22;11402;51.374;6.594;2022-12-18T04:02:27;-2.70;99.90
22471;DHT22;11402;51.374;6.594;2022-12-18T04:04:56;-2.60;99.90
22471;DHT22;11402;51.374;6.594;2022-12-18T04:07:23;-2.50;99.90
22471;DHT22;11402;51.374;6.594;2022-12-18T04:09:50;-2.60;99.90
22471;DHT22;11402;51.374;6.594;2022-12-18T04:12:18;-2.60;99.90
22471;DHT22;11402;51.374;6.594;2022-12-18T04:14:44;-2.70;99.90
22471;DHT22;11402;51.374;6.594;2022-12-18T04:17:10;-2.60;99.90
22471;DHT22;11402;51.374;6.594;2022-12-18T04:19:35;-2.50;99.90
22471;DHT22;11402;51.374;6.594;2022-12-18T04:22:01;-2.60;99.90
22471;DHT22;11402;51.374;6.594;2022-12-18T04:24:26;-2.50;99.90
22471;DHT22;11402;51.374;6.594;2022-12-18T04:26:52;-2.60;99.90
22471;DHT22;11402;51.374;6.594;2022-12-18T04:29:17;-2.60;99.90
22471;DHT22;11402;51.374;6.594;2022-12-18T04:31:43;-2.60;99.90
22471;DHT22;11402;51.374;6.594;2022-12-18T04:34:09;-2.50;99.90
22471;DHT22;11402;51.374;6.594;2022-12-18T04:36:34;-2.50;99.90
22471;DHT22;11402;51.374;6.594;2022-12-18T04:39:00;-2.50;99.90
22471;DHT22;11402;51.374;6.594;2022-12-18T04:41:25;-2.40;99.90
22471;DHT22;11402;51.374;6.594;2022-12-18T04:43:51;-2.50;99.90
22471;DHT22;11402;51.374;6.594;2022-12-18T04:46:16;-2.50;99.90
22471;DHT22;11402;51.374;6.594;2022-12-18T04:48:45;-2.40;99.90
22471;DHT22;11402;51.374;6.594;2022-12-18T04:51:12;-2.50;99.90
22471;DHT22;11402;51.374;6.594;2022-12-18T04:53:38;-2.50;99.90
22471;DHT22;11402;51.374;6.594;2022-12-18T04:56:12;-2.50;99.90
22471;DHT22;11402;51.374;6.594;2022-12-18T04:58:39;-2.40;99.90
22471;DHT22;11402;51.374;6.594;2022-12-18T05:01:06;-2.40;99.90
22471;DHT22;11402;51.374;6.594;2022-12-18T05:03:33;-2.50;99.90
22471;DHT22;11402;51.374;6.594;2022-12-18T05:05:58;-2.60;99.90
22471;DHT22;11402;51.374;6.594;2022-12-18T05:08:24;-2.60;99.90
22471;DHT22;11402;51.374;6.594;2022-12-18T05:10:57;-2.60;99.90
22471;DHT22;11402;51.374;6.594;2022-12-18T05:13:23;-2.50;99.90
22471;DHT22;11402;51.374;6.594;2022-12-18T05:15:52;-2.50;99.90
22471;DHT22;11402;51.374;6.594;2022-12-18T05:18:18;-2.50;99.90
22471;DHT22;11402;51.374;6.594;2022-12-18T05:20:43;-2.60;99.90
22471;DHT22;11402;51.374;6.594;2022-12-18T05:23:09;-2.60;99.90
22471;DHT22;11402;51.374;6.594;2022-12-18T05:25:34;-2.50;99.90
22471;DHT22;11402;51.374;6.594;2022-12-18T05:28:00;-2.50;99.90
22471;DHT22;11402;51.374;6.594;2022-12-18T05:30:26;-2.60;99.90
22471;DHT22;11402;51.374;6.594;2022-12-18T05:32:52;-2.50;99.90
22471;DHT22;11402;51.374;6.594;2022-12-18T05:35:18;-2.60;99.90
22471;DHT22;11402;51.374;6.594;2022-12-18T05:37:44;-2.70;99.90
22471;DHT22;11402;51.374;6.594;2022-12-18T05:40:10;-2.80;99.90
22471;DHT22;11402;51.374;6.594;2022-12-18T05:42:36;-2.90;99.90
22471;DHT22;11402;51.374;6.594;2022-12-18T05:45:02;-2.90;99.90
22471;DHT22;11402;51.374;6.594;2022-12-18T05:47:28;-2.80;99.90
22471;DHT22;11402;51.374;6.594;2022-12-18T05:49:54;-2.90;99.90
22471;DHT22;11402;51.374;6.594;2022-12-18T05:52:20;-2.90;99.90
22471;DHT22;11402;51.374;6.594;2022-12-18T05:54:46;-2.90;99.90
22471;DHT22;11402;51.374;6.594;2022-12-18T05:57:11;-2.90;99.90
22471;DHT22;11402;51.374;6.594;2022-12-18T05:59:37;-2.90;99.90
22471;DHT22;11402;51.374;6.594;2022-12-18T06:02:02;-3.00;99.90
22471;DHT22;11402;51.374;6.594;2022-12-18T06:04:28;-2.90;99.90
22471;DHT22;11402;51.374;6.594;2022-12-18T06:06:55;-3.00;99.90
22471;DHT22;11402;51.374;6.594;2022-12-18T06:09:21;-3.00;99.90
22471;DHT22;11402;51.374;6.594;2022-12-18T06:11:46;-3.00;99.90
22471;DHT22;11402;51.374;6.594;2022-12-18T06:14:12;-3.00;99.90
22471;DHT22;11402;51.374;6.594;2022-12-18T06:16:37;-3.00;99.90
22471;DHT22;11402;51.374;6.594;2022-12-18T06:19:04;-3.00;99.90
22471;DHT22;11402;51.374;6.594;2022-12-18T06:21:32;-3.10;99.90
22471;DHT22;11402;51.374;6.594;2022-12-18T06:23:57;-3.00;99.90
22471;DHT22;11402;51.374;6.594;2022-12-18T06:26:23;-3.00;99.90
22471;DHT22;11402;51.374;6.594;2022-12-18T06:28:49;-3.00;99.90
22471;DHT22;11402;51.374;6.594;2022-12-18T06:31:15;-3.00;99.90
22471;DHT22;11402;51.374;6.594;2022-12-18T06:33:41;-2.90;99.90
22471;DHT22;11402;51.374;6.594;2022-12-18T06:36:08;-2.90;99.90
22471;DHT22;11402;51.374;6.594;2022-12-18T06:38:35;-2.70;99.90
22471;DHT22;11402;51.374;6.594;2022-12-18T06:41:09;-2.70;99.90
22471;DHT22;11402;51.374;6.594;2022-12-18T06:43:35;-2.70;99.90
22471;DHT22;11402;51.374;6.594;2022-12-18T06:46:03;-2.80;99.90
22471;DHT22;11402;51.374;6.594;2022-12-18T06:48:29;-2.80;99.90
22471;DHT22;11402;51.374;6.594;2022-12-18T06:50:55;-2.70;99.90
22471;DHT22;11402;51.374;6.594;2022-12-18T06:53:21;-2.70;99.90
22471;DHT22;11402;51.374;6.594;2022-12-18T06:55:46;-2.70;99.90
22471;DHT22;11402;51.374;6.594;2022-12-18T06:58:12;-2.70;99.90
22471;DHT22;11402;51.374;6.594;2022-12-18T07:00:37;-2.70;99.90
22471;DHT22;11402;51.374;6.594;2022-12-18T07:03:03;-2.70;99.90
22471;DHT22;11402;51.374;6.594;2022-12-18T07:05:29;-2.70;99.90
22471;DHT22;11402;51.374;6.594;2022-12-18T07:07:54;-2.60;99.90
22471;DHT22;11402;51.374;6.594;2022-12-18T07:10:20;-2.60;99.90
22471;DHT22;11402;51.374;6.594;2022-12-18T07:12:45;-2.60;99.90
22471;DHT22;11402;51.374;6.594;2022-12-18T07:15:11;-2.70;99.90
22471;DHT22;11402;51.374;6.594;2022-12-18T07:17:37;-2.70;99.90
22471;DHT22;11402;51.374;6.594;2022-12-18T07:20:03;-2.70;99.90
22471;DHT22;11402;51.374;6.594;2022-12-18T07:22:28;-2.60;99.90
22471;DHT22;11402;51.374;6.594;2022-12-18T07:24:54;-2.60;99.90
22471;DHT22;11402;51.374;6.594;2022-12-18T07:27:20;-2.60;99.90
22471;DHT22;11402;51.374;6.594;2022-12-18T07:29:46;-2.60;99.90
22471;DHT22;11402;51.374;6.594;2022-12-18T07:32:11;-2.60;99.90
22471;DHT22;11402;51.374;6.594;2022-12-18T07:34:37;-2.60;99.90
22471;DHT22;11402;51.374;6.594;2022-12-18T07:37:02;-2.50;99.90
22471;DHT22;11402;51.374;6.594;2022-12-18T07:39:28;-2.50;99.90
22471;DHT22;11402;51.374;6.594;2022-12-18T07:41:54;-2.50;99.90
22471;DHT22;11402;51.374;6.594;2022-12-18T07:44:38;-2.30;99.90
22471;DHT22;11402;51.374;6.594;2022-12-18T07:47:04;-2.30;99.90
22471;DHT22;11402;51.374;6.594;2022-12-18T07:49:30;-2.30;99.90
22471;DHT22;11402;51.374;6.594;2022-12-18T07:51:56;-2.30;99.90
22471;DHT22;11402;51.374;6.594;2022-12-18T07:54:23;-2.20;99.90
22471;DHT22;11402;51.374;6.594;2022-12-18T07:56:49;-2.20;99.90
22471;DHT22;11402;51.374;6.594;2022-12-18T07:59:14;-2.20;99.90
22471;DHT22;11402;51.374;6.594;2022-12-18T08:01:40;-2.20;99.90
22471;DHT22;11402;51.374;6.594;2022-12-18T08:04:05;-2.20;99.90
22471;DHT22;11402;51.374;6.594;2022-12-18T08:06:31;-2.20;99.90
22471;DHT22;11402;51.374;6.594;2022-12-18T08:08:57;-2.10;99.90
22471;DHT22;11402;51.374;6.594;2022-12-18T08:11:24;-2.00;99.90
22471;DHT22;11402;51.374;6.594;2022-12-18T08:13:51;-1.90;99.90
22471;DHT22;11402;51.374;6.594;2022-12-18T08:16:17;-1.90;99.90
22471;DHT22;11402;51.374;6.594;2022-12-18T08:18:43;-1.90;99.90
22471;DHT22;11402;51.374;6.594;2022-12-18T08:21:17;-1.90;99.90
22471;DHT22;11402;51.374;6.594;2022-12-18T08:23:44;-1.80;99.90
22471;DHT22;11402;51.374;6.594;2022-12-18T08:26:13;-1.80;99.90
22471;DHT22;11402;51.374;6.594;2022-12-18T08:28:39;-1.80;99.90
22471;DHT22;11402;51.374;6.594;2022-12-18T08:31:05;-1.80;99.90
22471;DHT22;11402;51.374;6.594;2022-12-18T08:33:31;-1.70;99.90
22471;DHT22;11402;51.374;6.594;2022-12-18T08:36:01;-1.60;99.90
22471;DHT22;11402;51.374;6.594;2022-12-18T08:38:27;-1.60;99.90
22471;DHT22;11402;51.374;6.594;2022-12-18T08:41:00;-1.60;99.90
22471;DHT22;11402;51.374;6.594;2022-12-18T08:43:26;-1.60;99.90
22471;DHT22;11402;51.374;6.594;2022-12-18T08:46:11;-1.50;99.90
22471;DHT22;11402;51.374;6.594;2022-12-18T08:48:36;-1.50;99.90
22471;DHT22;11402;51.374;6.594;2022-12-18T08:51:02;-1.50;99.90
22471;DHT22;11402;51.374;6.594;2022-12-18T08:53:28;-1.40;99.90
22471;DHT22;11402;51.374;6.594;2022-12-18T08:55:53;-1.40;99.90
22471;DHT22;11402;51.374;6.594;2022-12-18T08:58:19;-1.30;99.90
22471;DHT22;11402;51.374;6.594;2022-12-18T09:00:44;-1.20;99.90
22471;DHT22;11402;51.374;6.594;2022-12-18T09:03:18;-1.20;99.90
22471;DHT22;11402;51.374;6.594;2022-12-18T09:05:45;-1.10;99.90
22471;DHT22;11402;51.374;6.594;2022-12-18T09:08:11;-1.10;99.90
22471;DHT22;11402;51.374;6.594;2022-12-18T09:10:44;-1.10;99.90
22471;DHT22;11402;51.374;6.594;2022-12-18T09:13:11;-1.00;99.90
22471;DHT22;11402;51.374;6.594;2022-12-18T09:15:45;-1.00;99.90
22471;DHT22;11402;51.374;6.594;2022-12-18T09:18:12;-1.00;99.90
22471;DHT22;11402;51.374;6.594;2022-12-18T09:20:38;-1.00;99.90
22471;DHT22;11402;51.374;6.594;2022-12-18T09:23:04;-1.00;99.90
22471;DHT22;11402;51.374;6.594;2022-12-18T09:25:31;-1.00;99.90
22471;DHT22;11402;51.374;6.594;2022-12-18T09:28:04;-0.90;99.90
22471;DHT22;11402;51.374;6.594;2022-12-18T09:30:30;-0.90;99.90
22471;DHT22;11402;51.374;6.594;2022-12-18T09:32:58;-0.90;99.90
22471;DHT22;11402;51.374;6.594;2022-12-18T09:35:24;-0.80;99.90
22471;DHT22;11402;51.374;6.594;2022-12-18T09:37:50;-0.80;99.90
22471;DHT22;11402;51.374;6.594;2022-12-18T09:40:21;-0.70;99.90
22471;DHT22;11402;51.374;6.594;2022-12-18T09:42:54;-0.70;99.90
22471;DHT22;11402;51.374;6.594;2022-12-18T09:45:21;-0.70;99.90
22471;DHT22;11402;51.374;6.594;2022-12-18T09:47:48;-0.60;99.90
22471;DHT22;11402;51.374;6.594;2022-12-18T09:50:31;-0.60;99.90
22471;DHT22;11402;51.374;6.594;2022-12-18T09:53:04;-0.60;99.90
22471;DHT22;11402;51.374;6.594;2022-12-18T09:55:42;-0.60;99.90
22471;DHT22;11402;51.374;6.594;2022-12-18T09:58:39;-0.50;99.90
22471;DHT22;11402;51.374;6.594;2022-12-18T10:01:21;-0.40;99.90
22471;DHT22;11402;51.374;6.594;2022-12-18T10:03:48;-0.30;99.90
22471;DHT22;11402;51.374;6.594;2022-12-18T10:06:18;-0.20;99.90
22471;DHT22;11402;51.374;6.594;2022-12-18T10:08:51;-0.20;99.90
22471;DHT22;11402;51.374;6.594;2022-12-18T10:11:48;-0.20;99.90
22471;DHT22;11402;51.374;6.594;2022-12-18T10:14:41;-0.10;99.90
22471;DHT22;11402;51.374;6.594;2022-12-18T10:17:31;-0.10;99.90
22471;DHT22;11402;51.374;6.594;2022-12-18T10:20:21;-0.10;99.90
22471;DHT22;11402;51.374;6.594;2022-12-18T10:23:01;0.00;99.90
22471;DHT22;11402;51.374;6.594;2022-12-18T10:28:25;0.10;99.90
22471;DHT22;11402;51.374;6.594;2022-12-18T10:30:51;0.10;99.90
22471;DHT22;11402;51.374;6.594;2022-12-18T10:33:20;0.20;99.90
22471;DHT22;11402;51.374;6.594;2022-12-18T10:35:48;0.10;99.90
22471;DHT22;11402;51.374;6.594;2022-12-18T10:41:04;0.30;99.90
22471;DHT22;11402;51.374;6.594;2022-12-18T10:43:32;0.30;99.90
22471;DHT22;11402;51.374;6.594;2022-12-18T10:46:21;0.30;99.90
22471;DHT22;11402;51.374;6.594;2022-12-18T10:48:53;0.30;99.90
22471;DHT22;11402;51.374;6.594;2022-12-18T10:51:29;0.30;99.90
22471;DHT22;11402;51.374;6.594;2022-12-18T10:54:14;0.40;99.90
22471;DHT22;11402;51.374;6.594;2022-12-18T10:56:40;0.40;99.90
22471;DHT22;11402;51.374;6.594;2022-12-18T10:59:08;0.40;99.90
22471;DHT22;11402;51.374;6.594;2022-12-18T11:01:54;0.40;99.90
22471;DHT22;11402;51.374;6.594;2022-12-18T11:04:27;0.40;99.90
22471;DHT22;11402;51.374;6.594;2022-12-18T11:06:59;0.40;99.90
22471;DHT22;11402;51.374;6.594;2022-12-18T11:09:30;0.50;99.90
22471;DHT22;11402;51.374;6.594;2022-12-18T11:11:59;0.50;99.90
22471;DHT22;11402;51.374;6.594;2022-12-18T11:14:43;0.60;99.90
22471;DHT22;11402;51.374;6.594;2022-12-18T11:20:00;0.50;99.90
22471;DHT22;11402;51.374;6.594;2022-12-18T11:22:31;0.60;99.90
22471;DHT22;11402;51.374;6.594;2022-12-18T11:27:41;0.70;99.90
22471;DHT22;11402;51.374;6.594;2022-12-18T11:30:23;0.70;99.90
22471;DHT22;11402;51.374;6.594;2022-12-18T11:33:04;0.70;99.90
22471;DHT22;11402;51.374;6.594;2022-12-18T11:38:28;0.70;99.90
22471;DHT22;11402;51.374;6.594;2022-12-18T11:43:52;0.90;99.90
22471;DHT22;11402;51.374;6.594;2022-12-18T11:46:37;0.80;99.90
22471;DHT22;11402;51.374;6.594;2022-12-18T11:49:09;0.80;99.90
22471;DHT22;11402;51.374;6.594;2022-12-18T11:52:16;0.80;99.90
22471;DHT22;11402;51.374;6.594;2022-12-18T11:54:42;0.80;99.90
22471;DHT22;11402;51.374;6.594;2022-12-18T12:00:04;0.90;99.90
22471;DHT22;11402;51.374;6.594;2022-12-18T12:02:48;0.80;99.90
22471;DHT22;11402;51.374;6.594;2022-12-18T12:13:38;1.00;99.90
22471;DHT22;11402;51.374;6.594;2022-12-18T12:16:09;1.00;99.90
22471;DHT22;11402;51.374;6.594;2022-12-18T12:23:51;0.90;99.90
22471;DHT22;11402;51.374;6.594;2022-12-18T12:32:11;1.00;99.90
22471;DHT22;11402;51.374;6.594;2022-12-18T12:38:02;1.00;99.90
22471;DHT22;11402;51.374;6.594;2022-12-18T12:40:33;1.00;99.90
22471;DHT22;11402;51.374;6.594;2022-12-18T12:43:07;1.10;99.90
22471;DHT22;11402;51.374;6.594;2022-12-18T12:50:55;1.00;99.90
22471;DHT22;11402;51.374;6.594;2022-12-18T12:53:28;1.00;99.90
22471;DHT22;11402;51.374;6.594;2022-12-18T12:55:56;1.00;99.90
22471;DHT22;11402;51.374;6.594;2022-12-18T12:58:53;1.00;99.90
22471;DHT22;11402;51.374;6.594;2022-12-18T13:04:13;1.00;99.90
22471;DHT22;11402;51.374;6.594;2022-12-18T13:06:59;1.10;99.90
22471;DHT22;11402;51.374;6.594;2022-12-18T13:09:33;1.10;99.90
22471;DHT22;11402;51.374;6.594;2022-12-18T13:12:04;1.20;99.90
22471;DHT22;11402;51.374;6.594;2022-12-18T13:14:52;1.20;99.90
22471;DHT22;11402;51.374;6.594;2022-12-18T13:19:51;1.20;99.90
22471;DHT22;11402;51.374;6.594;2022-12-18T13:22:22;1.20;99.90
22471;DHT22;11402;51.374;6.594;2022-12-18T13:24:49;1.20;99.90
22471;DHT22;11402;51.374;6.594;2022-12-18T13:40:54;1.00;99.90
22471;DHT22;11402;51.374;6.594;2022-12-18T13:45:50;1.00;99.90
22471;DHT22;11402;51.374;6.594;2022-12-18T13:48:25;1.00;99.90
22471;DHT22;11402;51.374;6.594;2022-12-18T13:50:57;1.00;99.90
22471;DHT22;11402;51.374;6.594;2022-12-18T13:53:46;1.00;99.90
22471;DHT22;11402;51.374;6.594;2022-12-18T13:56:23;0.90;99.90
22471;DHT22;11402;51.374;6.594;2022-12-18T14:01:33;0.90;99.90
22471;DHT22;11402;51.374;6.594;2022-12-18T14:04:10;0.80;99.90
22471;DHT22;11402;51.374;6.594;2022-12-18T14:06:36;0.80;99.90
22471;DHT22;11402;51.374;6.594;2022-12-18T14:09:02;0.80;99.90
22471;DHT22;11402;51.374;6.594;2022-12-18T14:11:28;0.80;99.90
22471;DHT22;11402;51.374;6.594;2022-12-18T14:13:54;0.70;99.90
22471;DHT22;11402;51.374;6.594;2022-12-18T14:16:20;0.80;99.90
22471;DHT22;11402;51.374;6.594;2022-12-18T14:18:56;0.80;99.90
22471;DHT22;11402;51.374;6.594;2022-12-18T14:21:26;0.80;99.90
22471;DHT22;11402;51.374;6.594;2022-12-18T14:24:15;0.80;99.90
22471;DHT22;11402;51.374;6.594;2022-12-18T14:26:41;0.80;99.90
22471;DHT22;11402;51.374;6.594;2022-12-18T14:29:25;0.90;99.90
22471;DHT22;11402;51.374;6.594;2022-12-18T14:32:19;0.90;99.90
22471;DHT22;11402;51.374;6.594;2022-12-18T14:34:47;0.80;99.90
22471;DHT22;11402;51.374;6.594;2022-12-18T14:37:15;0.80;99.90
22471;DHT22;11402;51.374;6.594;2022-12-18T14:39:58;0.70;99.90
22471;DHT22;11402;51.374;6.594;2022-12-18T14:42:27;0.80;99.90
22471;DHT22;11402;51.374;6.594;2022-12-18T14:47:56;0.80;99.90
22471;DHT22;11402;51.374;6.594;2022-12-18T14:50:22;0.80;99.90
22471;DHT22;11402;51.374;6.594;2022-12-18T14:52:47;0.70;99.90
22471;DHT22;11402;51.374;6.594;2022-12-18T14:55:17;0.70;99.90
22471;DHT22;11402;51.374;6.594;2022-12-18T14:57:44;0.60;99.90
22471;DHT22;11402;51.374;6.594;2022-12-18T15:00:18;0.60;99.90
22471;DHT22;11402;51.374;6.594;2022-12-18T15:02:46;0.70;99.90
22471;DHT22;11402;51.374;6.594;2022-12-18T15:07:41;0.60;99.90
22471;DHT22;11402;51.374;6.594;2022-12-18T15:12:44;0.50;99.90
22471;DHT22;11402;51.374;6.594;2022-12-18T15:20:33;0.70;99.90
22471;DHT22;11402;51.374;6.594;2022-12-18T15:23:04;0.60;99.90
22471;DHT22;11402;51.374;6.594;2022-12-18T15:25:34;0.50;99.90
22471;DHT22;11402;51.374;6.594;2022-12-18T15:28:02;0.50;99.90
22471;DHT22;11402;51.374;6.594;2022-12-18T15:30:27;0.50;99.90
22471;DHT22;11402;51.374;6.594;2022-12-18T15:33:20;0.50;99.90
22471;DHT22;11402;51.374;6.594;2022-12-18T15:35:56;0.50;99.90
22471;DHT22;11402;51.374;6.594;2022-12-18T15:38:22;0.50;99.90
22471;DHT22;11402;51.374;6.594;2022-12-18T15:40:47;0.50;99.90
22471;DHT22;11402;51.374;6.594;2022-12-18T15:43:13;0.60;99.90
22471;DHT22;11402;51.374;6.594;2022-12-18T15:45:57;0.50;99.90
22471;DHT22;11402;51.374;6.594;2022-12-18T15:48:23;0.60;99.90
22471;DHT22;11402;51.374;6.594;2022-12-18T15:50:50;0.50;99.90
22471;DHT22;11402;51.374;6.594;2022-12-18T15:53:17;0.40;99.90
22471;DHT22;11402;51.374;6.594;2022-12-18T15:55:43;0.40;99.90
22471;DHT22;11402;51.374;6.594;2022-12-18T15:58:27;0.40;99.90
22471;DHT22;11402;51.374;6.594;2022-12-18T16:00:54;0.40;99.90
22471;DHT22;11402;51.374;6.594;2022-12-18T16:03:21;0.40;99.90
22471;DHT22;11402;51.374;6.594;2022-12-18T16:05:47;0.30;99.90
22471;DHT22;11402;51.374;6.594;2022-12-18T16:08:12;0.30;99.90
22471;DHT22;11402;51.374;6.594;2022-12-18T16:10:38;0.30;99.90
22471;DHT22;11402;51.374;6.594;2022-12-18T16:13:04;0.30;99.90
22471;DHT22;11402;51.374;6.594;2022-12-18T16:15:29;0.20;99.90
22471;DHT22;11402;51.374;6.594;2022-12-18T16:17:55;0.70;99.90
22471;DHT22;11402;51.374;6.594;2022-12-18T16:20:22;0.30;99.90
22471;DHT22;11402;51.374;6.594;2022-12-18T16:22:48;0.30;99.90
22471;DHT22;11402;51.374;6.594;2022-12-18T16:25:25;0.30;99.90
22471;DHT22;11402;51.374;6.594;2022-12-18T16:27:52;0.30;99.90
22471;DHT22;11402;51.374;6.594;2022-12-18T16:30:21;0.30;99.90
22471;DHT22;11402;51.374;6.594;2022-12-18T16:32:47;0.30;99.90
22471;DHT22;11402;51.374;6.594;2022-12-18T16:35:14;0.30;99.90
22471;DHT22;11402;51.374;6.594;2022-12-18T16:37:41;0.30;99.90
22471;DHT22;11402;51.374;6.594;2022-12-18T16:40:08;0.20;99.90
22471;DHT22;11402;51.374;6.594;2022-12-18T16:42:42;0.20;99.90
22471;DHT22;11402;51.374;6.594;2022-12-18T16:45:10;0.30;99.90
22471;DHT22;11402;51.374;6.594;2022-12-18T16:47:36;0.20;99.90
22471;DHT22;11402;51.374;6.594;2022-12-18T16:50:03;0.20;99.90
22471;DHT22;11402;51.374;6.594;2022-12-18T16:52:29;0.20;99.90
22471;DHT22;11402;51.374;6.594;2022-12-18T16:54:55;0.20;99.90
22471;DHT22;11402;51.374;6.594;2022-12-18T16:57:21;0.10;99.90
22471;DHT22;11402;51.374;6.594;2022-12-18T16:59:46;0.00;99.90
22471;DHT22;11402;51.374;6.594;2022-12-18T17:02:20;0.10;99.90
22471;DHT22;11402;51.374;6.594;2022-12-18T17:04:46;0.00;99.90
22471;DHT22;11402;51.374;6.594;2022-12-18T17:07:12;0.10;99.90
22471;DHT22;11402;51.374;6.594;2022-12-18T17:09:39;0.20;99.90
22471;DHT22;11402;51.374;6.594;2022-12-18T17:12:05;0.10;99.90
22471;DHT22;11402;51.374;6.594;2022-12-18T17:14:31;0.10;99.90
22471;DHT22;11402;51.374;6.594;2022-12-18T17:16:58;0.10;99.90
22471;DHT22;11402;51.374;6.594;2022-12-18T17:19:26;0.20;99.90
22471;DHT22;11402;51.374;6.594;2022-12-18T17:21:52;0.10;99.90
22471;DHT22;11402;51.374;6.594;2022-12-18T17:24:18;0.10;99.90
22471;DHT22;11402;51.374;6.594;2022-12-18T17:26:44;0.00;99.90
22471;DHT22;11402;51.374;6.594;2022-12-18T17:29:14;0.10;99.90
22471;DHT22;11402;51.374;6.594;2022-12-18T17:31:40;0.10;99.90
22471;DHT22;11402;51.374;6.594;2022-12-18T17:34:07;0.10;99.90
22471;DHT22;11402;51.374;6.594;2022-12-18T17:36:34;0.10;99.90
22471;DHT22;11402;51.374;6.594;2022-12-18T17:39:01;0.10;99.90
22471;DHT22;11402;51.374;6.594;2022-12-18T17:41:28;0.00;99.90
22471;DHT22;11402;51.374;6.594;2022-12-18T17:43:57;0.00;99.90
22471;DHT22;11402;51.374;6.594;2022-12-18T17:46:24;0.00;99.90
22471;DHT22;11402;51.374;6.594;2022-12-18T17:48:50;-0.10;99.90